sensor_id;sensor_type;location;lat;lon;timestamp;P1;durP1;ratioP1;P2;durP2;ratioP2
66425;SDS011;53237;46.158;14.604;2023-02-11T00:00:00;56.45;;;30.90;;
66425;SDS011;53237;46.158;14.604;2023-02-11T00:02:26;53.05;;;31.15;;
66425;SDS011;53237;46.158;14.604;2023-02-11T00:04:53;51.35;;;30.27;;
66425;SDS011;53237;46.158;14.604;2023-02-11T00:07:19;49.53;;;29.83;;
66425;SDS011;53237;46.158;14.604;2023-02-11T00:09:45;47.25;;;27.48;;
66425;SDS011;53237;46.158;14.604;2023-02-11T00:12:11;44.65;;;27.40;;
66425;SDS011;53237;46.158;14.604;2023-02-11T00:14:37;45.05;;;26.98;;
66425;SDS011;53237;46.158;14.604;2023-02-11T00:17:03;44.65;;;27.00;;
66425;SDS011;53237;46.158;14.604;2023-02-11T00:19:29;41.63;;;26.30;;
66425;SDS011;53237;46.158;14.604;2023-02-11T00:21:55;45.45;;;25.65;;
66425;SDS011;53237;46.158;14.604;2023-02-11T00:24:21;41.40;;;25.98;;
66425;SDS011;53237;46.158;14.604;2023-02-11T00:26:47;42.60;;;25.88;;
66425;SDS011;53237;46.158;14.604;2023-02-11T00:29:13;38.58;;;24.63;;
66425;SDS011;53237;46.158;14.604;2023-02-11T00:31:39;39.78;;;24.83;;
66425;SDS011;53237;46.158;14.604;2023-02-11T00:34:05;35.08;;;23.83;;
66425;SDS011;53237;46.158;14.604;2023-02-11T00:36:31;39.35;;;24.38;;
66425;SDS011;53237;46.158;14.604;2023-02-11T00:38:58;42.75;;;25.73;;
66425;SDS011;53237;46.158;14.604;2023-02-11T00:41:24;40.78;;;24.88;;
66425;SDS011;53237;46.158;14.604;2023-02-11T00:43:50;37.15;;;23.63;;
66425;SDS011;53237;46.158;14.604;2023-02-11T00:46:16;40.47;;;23.52;;
66425;SDS011;53237;46.158;14.604;2023-02-11T00:48:43;36.47;;;22.70;;
66425;SDS011;53237;46.158;14.604;2023-02-11T00:51:09;37.92;;;24.20;;
66425;SDS011;53237;46.158;14.604;2023-02-11T00:53:35;42.78;;;25.52;;
66425;SDS011;53237;46.158;14.604;2023-02-11T00:56:01;41.03;;;24.88;;
66425;SDS011;53237;46.158;14.604;2023-02-11T00:58:27;39.67;;;24.67;;
66425;SDS011;53237;46.158;14.604;2023-02-11T01:00:54;38.42;;;24.00;;
66425;SDS011;53237;46.158;14.604;2023-02-11T01:03:20;41.60;;;25.02;;
66425;SDS011;53237;46.158;14.604;2023-02-11T01:05:46;36.92;;;23.50;;
66425;SDS011;53237;46.158;14.604;2023-02-11T01:08:12;38.78;;;23.70;;
66425;SDS011;53237;46.158;14.604;2023-02-11T01:10:38;37.05;;;24.40;;
66425;SDS011;53237;46.158;14.604;2023-02-11T01:13:04;36.50;;;23.35;;
66425;SDS011;53237;46.158;14.604;2023-02-11T01:15:30;36.70;;;23.48;;
66425;SDS011;53237;46.158;14.604;2023-02-11T01:17:56;34.25;;;22.15;;
66425;SDS011;53237;46.158;14.604;2023-02-11T01:20:23;34.60;;;22.00;;
66425;SDS011;53237;46.158;14.604;2023-02-11T01:22:51;36.35;;;21.88;;
66425;SDS011;53237;46.158;14.604;2023-02-11T01:25:17;35.28;;;22.38;;
66425;SDS011;53237;46.158;14.604;2023-02-11T01:27:43;36.80;;;22.05;;
66425;SDS011;53237;46.158;14.604;2023-02-11T01:30:10;37.05;;;23.35;;
66425;SDS011;53237;46.158;14.604;2023-02-11T01:32:36;36.40;;;22.40;;
66425;SDS011;53237;46.158;14.604;2023-02-11T01:35:03;40.42;;;24.02;;
66425;SDS011;53237;46.158;14.604;2023-02-11T01:37:31;34.58;;;22.98;;
66425;SDS011;53237;46.158;14.604;2023-02-11T01:39:57;39.92;;;24.45;;
66425;SDS011;53237;46.158;14.604;2023-02-11T01:42:23;39.97;;;23.67;;
66425;SDS011;53237;46.158;14.604;2023-02-11T01:44:49;39.35;;;24.55;;
66425;SDS011;53237;46.158;14.604;2023-02-11T01:47:16;43.33;;;25.15;;
66425;SDS011;53237;46.158;14.604;2023-02-11T01:49:48;38.25;;;23.83;;
66425;SDS011;53237;46.158;14.604;2023-02-11T01:54:54;40.40;;;24.05;;
66425;SDS011;53237;46.158;14.604;2023-02-11T01:57:41;40.35;;;24.20;;
66425;SDS011;53237;46.158;14.604;2023-02-11T02:00:12;41.47;;;24.65;;
66425;SDS011;53237;46.158;14.604;2023-02-11T02:10:16;40.13;;;25.52;;
66425;SDS011;53237;46.158;14.604;2023-02-11T02:12:43;37.53;;;23.92;;
66425;SDS011;53237;46.158;14.604;2023-02-11T02:37:35;45.25;;;27.25;;
66425;SDS011;53237;46.158;14.604;2023-02-11T02:39:34;43.72;;;26.45;;
66425;SDS011;53237;46.158;14.604;2023-02-11T02:42:01;44.28;;;26.23;;
66425;SDS011;53237;46.158;14.604;2023-02-11T02:44:27;44.80;;;27.73;;
66425;SDS011;53237;46.158;14.604;2023-02-11T02:46:53;43.38;;;27.17;;
66425;SDS011;53237;46.158;14.604;2023-02-11T02:49:19;40.97;;;25.38;;
66425;SDS011;53237;46.158;14.604;2023-02-11T03:04:34;44.17;;;26.90;;
66425;SDS011;53237;46.158;14.604;2023-02-11T03:09:48;47.15;;;27.08;;
66425;SDS011;53237;46.158;14.604;2023-02-11T03:12:16;45.80;;;26.98;;
66425;SDS011;53237;46.158;14.604;2023-02-11T03:14:42;47.80;;;27.80;;
66425;SDS011;53237;46.158;14.604;2023-02-11T03:17:08;48.92;;;27.88;;
66425;SDS011;53237;46.158;14.604;2023-02-11T03:19:36;50.88;;;27.63;;
66425;SDS011;53237;46.158;14.604;2023-02-11T03:22:04;51.80;;;28.90;;
66425;SDS011;53237;46.158;14.604;2023-02-11T03:24:32;45.58;;;27.88;;
66425;SDS011;53237;46.158;14.604;2023-02-11T03:27:35;43.33;;;26.88;;
66425;SDS011;53237;46.158;14.604;2023-02-11T03:29:53;43.97;;;27.17;;
66425;SDS011;53237;46.158;14.604;2023-02-11T03:34:56;43.03;;;26.75;;
66425;SDS011;53237;46.158;14.604;2023-02-11T03:39:53;42.53;;;25.23;;
66425;SDS011;53237;46.158;14.604;2023-02-11T03:42:20;40.17;;;24.75;;
66425;SDS011;53237;46.158;14.604;2023-02-11T03:44:54;40.15;;;24.98;;
66425;SDS011;53237;46.158;14.604;2023-02-11T03:47:22;39.40;;;24.02;;
66425;SDS011;53237;46.158;14.604;2023-02-11T03:49:50;37.42;;;23.10;;
66425;SDS011;53237;46.158;14.604;2023-02-11T03:52:19;38.00;;;23.10;;
66425;SDS011;53237;46.158;14.604;2023-02-11T03:54:46;34.50;;;22.10;;
66425;SDS011;53237;46.158;14.604;2023-02-11T03:57:14;34.80;;;22.30;;
66425;SDS011;53237;46.158;14.604;2023-02-11T03:59:50;35.17;;;21.73;;
66425;SDS011;53237;46.158;14.604;2023-02-11T04:02:16;34.92;;;21.42;;
66425;SDS011;53237;46.158;14.604;2023-02-11T04:04:43;35.30;;;22.30;;
66425;SDS011;53237;46.158;14.604;2023-02-11T04:07:10;29.98;;;20.02;;
66425;SDS011;53237;46.158;14.604;2023-02-11T04:09:36;31.15;;;20.38;;
66425;SDS011;53237;46.158;14.604;2023-02-11T04:12:02;31.83;;;20.65;;
66425;SDS011;53237;46.158;14.604;2023-02-11T04:14:29;29.63;;;20.15;;
66425;SDS011;53237;46.158;14.604;2023-02-11T04:16:54;33.55;;;21.60;;
66425;SDS011;53237;46.158;14.604;2023-02-11T04:19:20;32.08;;;20.80;;
66425;SDS011;53237;46.158;14.604;2023-02-11T04:21:46;30.80;;;19.88;;
66425;SDS011;53237;46.158;14.604;2023-02-11T04:24:12;31.40;;;20.63;;
66425;SDS011;53237;46.158;14.604;2023-02-11T04:26:38;31.40;;;20.25;;
66425;SDS011;53237;46.158;14.604;2023-02-11T04:29:04;32.05;;;20.35;;
66425;SDS011;53237;46.158;14.604;2023-02-11T04:31:30;29.92;;;19.60;;
66425;SDS011;53237;46.158;14.604;2023-02-11T04:33:56;28.90;;;19.55;;
66425;SDS011;53237;46.158;14.604;2023-02-11T04:36:22;27.48;;;18.95;;
66425;SDS011;53237;46.158;14.604;2023-02-11T04:38:48;30.27;;;19.48;;
66425;SDS011;53237;46.158;14.604;2023-02-11T04:41:14;31.23;;;19.35;;
66425;SDS011;53237;46.158;14.604;2023-02-11T04:43:40;28.17;;;18.52;;
66425;SDS011;53237;46.158;14.604;2023-02-11T04:46:06;27.65;;;18.48;;
66425;SDS011;53237;46.158;14.604;2023-02-11T04:48:32;28.00;;;18.60;;
66425;SDS011;53237;46.158;14.604;2023-02-11T04:50:59;28.77;;;19.25;;
66425;SDS011;53237;46.158;14.604;2023-02-11T04:53:25;27.17;;;18.23;;
66425;SDS011;53237;46.158;14.604;2023-02-11T04:55:51;29.30;;;19.45;;
66425;SDS011;53237;46.158;14.604;2023-02-11T04:58:17;26.85;;;18.08;;
66425;SDS011;53237;46.158;14.604;2023-02-11T05:00:44;28.35;;;19.05;;
66425;SDS011;53237;46.158;14.604;2023-02-11T05:03:10;27.55;;;18.55;;
66425;SDS011;53237;46.158;14.604;2023-02-11T05:05:39;27.90;;;19.30;;
66425;SDS011;53237;46.158;14.604;2023-02-11T05:08:06;27.17;;;18.85;;
66425;SDS011;53237;46.158;14.604;2023-02-11T05:10:32;28.13;;;19.00;;
66425;SDS011;53237;46.158;14.604;2023-02-11T05:12:59;28.73;;;19.55;;
66425;SDS011;53237;46.158;14.604;2023-02-11T05:15:25;28.35;;;19.80;;
66425;SDS011;53237;46.158;14.604;2023-02-11T05:17:51;27.67;;;18.85;;
66425;SDS011;53237;46.158;14.604;2023-02-11T05:20:17;27.90;;;19.33;;
66425;SDS011;53237;46.158;14.604;2023-02-11T05:22:43;29.75;;;19.65;;
66425;SDS011;53237;46.158;14.604;2023-02-11T05:25:09;28.73;;;19.83;;
66425;SDS011;53237;46.158;14.604;2023-02-11T05:27:35;26.23;;;18.60;;
66425;SDS011;53237;46.158;14.604;2023-02-11T05:30:01;29.00;;;19.48;;
66425;SDS011;53237;46.158;14.604;2023-02-11T05:32:27;28.02;;;19.17;;
66425;SDS011;53237;46.158;14.604;2023-02-11T05:34:53;30.35;;;20.20;;
66425;SDS011;53237;46.158;14.604;2023-02-11T05:37:19;31.60;;;20.75;;
66425;SDS011;53237;46.158;14.604;2023-02-11T05:39:45;30.48;;;19.90;;
66425;SDS011;53237;46.158;14.604;2023-02-11T05:42:12;31.42;;;20.60;;
66425;SDS011;53237;46.158;14.604;2023-02-11T05:44:38;30.05;;;20.55;;
66425;SDS011;53237;46.158;14.604;2023-02-11T05:47:04;32.20;;;19.90;;
66425;SDS011;53237;46.158;14.604;2023-02-11T05:49:32;32.75;;;21.40;;
66425;SDS011;53237;46.158;14.604;2023-02-11T05:51:58;31.25;;;19.80;;
66425;SDS011;53237;46.158;14.604;2023-02-11T05:54:24;33.28;;;20.67;;
66425;SDS011;53237;46.158;14.604;2023-02-11T05:56:50;31.27;;;20.55;;
66425;SDS011;53237;46.158;14.604;2023-02-11T05:59:16;33.17;;;21.30;;
66425;SDS011;53237;46.158;14.604;2023-02-11T06:01:42;30.45;;;20.65;;
66425;SDS011;53237;46.158;14.604;2023-02-11T06:04:08;33.80;;;21.30;;
66425;SDS011;53237;46.158;14.604;2023-02-11T06:06:34;36.53;;;21.90;;
66425;SDS011;53237;46.158;14.604;2023-02-11T06:09:02;34.67;;;22.05;;
66425;SDS011;53237;46.158;14.604;2023-02-11T06:11:28;34.25;;;21.42;;
66425;SDS011;53237;46.158;14.604;2023-02-11T06:13:54;33.70;;;20.73;;
66425;SDS011;53237;46.158;14.604;2023-02-11T06:16:20;32.42;;;21.65;;
66425;SDS011;53237;46.158;14.604;2023-02-11T06:18:46;34.25;;;20.63;;
66425;SDS011;53237;46.158;14.604;2023-02-11T06:21:12;31.40;;;21.08;;
66425;SDS011;53237;46.158;14.604;2023-02-11T06:23:38;33.20;;;20.73;;
66425;SDS011;53237;46.158;14.604;2023-02-11T06:26:05;36.45;;;21.73;;
66425;SDS011;53237;46.158;14.604;2023-02-11T06:28:32;34.72;;;20.80;;
66425;SDS011;53237;46.158;14.604;2023-02-11T06:31:03;34.53;;;21.33;;
66425;SDS011;53237;46.158;14.604;2023-02-11T06:33:30;33.20;;;21.77;;
66425;SDS011;53237;46.158;14.604;2023-02-11T06:35:56;33.22;;;21.52;;
66425;SDS011;53237;46.158;14.604;2023-02-11T06:38:22;32.80;;;22.10;;
66425;SDS011;53237;46.158;14.604;2023-02-11T06:40:48;32.42;;;20.75;;
66425;SDS011;53237;46.158;14.604;2023-02-11T06:43:14;34.58;;;21.70;;
66425;SDS011;53237;46.158;14.604;2023-02-11T06:45:41;35.60;;;22.05;;
66425;SDS011;53237;46.158;14.604;2023-02-11T06:48:07;32.85;;;21.88;;
66425;SDS011;53237;46.158;14.604;2023-02-11T06:50:33;36.03;;;23.00;;
66425;SDS011;53237;46.158;14.604;2023-02-11T06:52:59;37.63;;;23.85;;
66425;SDS011;53237;46.158;14.604;2023-02-11T06:55:25;36.42;;;24.33;;
66425;SDS011;53237;46.158;14.604;2023-02-11T06:57:51;38.15;;;24.98;;
66425;SDS011;53237;46.158;14.604;2023-02-11T07:00:17;39.78;;;26.73;;
66425;SDS011;53237;46.158;14.604;2023-02-11T07:02:43;39.55;;;25.83;;
66425;SDS011;53237;46.158;14.604;2023-02-11T07:05:09;41.83;;;27.48;;
66425;SDS011;53237;46.158;14.604;2023-02-11T07:07:35;43.20;;;28.90;;
66425;SDS011;53237;46.158;14.604;2023-02-11T07:10:02;42.65;;;28.95;;
66425;SDS011;53237;46.158;14.604;2023-02-11T07:12:28;44.65;;;30.83;;
66425;SDS011;53237;46.158;14.604;2023-02-11T07:14:55;44.35;;;29.60;;
66425;SDS011;53237;46.158;14.604;2023-02-11T07:17:21;40.67;;;28.05;;
66425;SDS011;53237;46.158;14.604;2023-02-11T07:19:47;43.40;;;28.15;;
66425;SDS011;53237;46.158;14.604;2023-02-11T07:22:13;43.35;;;28.98;;
66425;SDS011;53237;46.158;14.604;2023-02-11T07:24:39;43.13;;;29.20;;
66425;SDS011;53237;46.158;14.604;2023-02-11T07:27:05;45.90;;;30.23;;
66425;SDS011;53237;46.158;14.604;2023-02-11T07:29:31;40.53;;;29.00;;
66425;SDS011;53237;46.158;14.604;2023-02-11T07:31:57;47.55;;;30.63;;
66425;SDS011;53237;46.158;14.604;2023-02-11T07:34:23;43.92;;;29.10;;
66425;SDS011;53237;46.158;14.604;2023-02-11T07:36:49;46.78;;;28.75;;
66425;SDS011;53237;46.158;14.604;2023-02-11T07:39:15;45.92;;;29.55;;
66425;SDS011;53237;46.158;14.604;2023-02-11T07:41:41;41.30;;;27.75;;
66425;SDS011;53237;46.158;14.604;2023-02-11T07:44:11;45.15;;;27.45;;
66425;SDS011;53237;46.158;14.604;2023-02-11T07:46:37;40.42;;;26.98;;
66425;SDS011;53237;46.158;14.604;2023-02-11T07:49:08;43.50;;;27.83;;
66425;SDS011;53237;46.158;14.604;2023-02-11T07:51:34;42.45;;;28.75;;
66425;SDS011;53237;46.158;14.604;2023-02-11T07:54:00;40.53;;;27.08;;
66425;SDS011;53237;46.158;14.604;2023-02-11T07:56:27;42.63;;;28.67;;
66425;SDS011;53237;46.158;14.604;2023-02-11T07:58:53;41.10;;;27.92;;
66425;SDS011;53237;46.158;14.604;2023-02-11T08:01:21;48.35;;;32.25;;
66425;SDS011;53237;46.158;14.604;2023-02-11T08:03:49;48.60;;;32.90;;
66425;SDS011;53237;46.158;14.604;2023-02-11T08:06:16;39.60;;;27.95;;
66425;SDS011;53237;46.158;14.604;2023-02-11T08:08:44;40.47;;;26.92;;
66425;SDS011;53237;46.158;14.604;2023-02-11T08:11:11;41.78;;;28.05;;
66425;SDS011;53237;46.158;14.604;2023-02-11T08:13:37;41.15;;;28.58;;
66425;SDS011;53237;46.158;14.604;2023-02-11T08:16:03;42.10;;;29.33;;
66425;SDS011;53237;46.158;14.604;2023-02-11T08:18:30;39.92;;;28.33;;
66425;SDS011;53237;46.158;14.604;2023-02-11T08:21:02;37.20;;;27.52;;
66425;SDS011;53237;46.158;14.604;2023-02-11T08:23:28;41.67;;;29.35;;
66425;SDS011;53237;46.158;14.604;2023-02-11T08:25:54;39.33;;;27.02;;
66425;SDS011;53237;46.158;14.604;2023-02-11T08:28:20;44.20;;;28.30;;
66425;SDS011;53237;46.158;14.604;2023-02-11T08:30:46;40.03;;;28.52;;
66425;SDS011;53237;46.158;14.604;2023-02-11T08:33:12;39.10;;;27.63;;
66425;SDS011;53237;46.158;14.604;2023-02-11T08:35:38;43.05;;;29.95;;
66425;SDS011;53237;46.158;14.604;2023-02-11T08:38:04;44.85;;;31.38;;
66425;SDS011;53237;46.158;14.604;2023-02-11T08:40:30;43.47;;;30.08;;
66425;SDS011;53237;46.158;14.604;2023-02-11T08:42:56;48.47;;;32.78;;
66425;SDS011;53237;46.158;14.604;2023-02-11T08:45:22;43.45;;;29.33;;
66425;SDS011;53237;46.158;14.604;2023-02-11T08:47:48;40.72;;;29.17;;
66425;SDS011;53237;46.158;14.604;2023-02-11T08:50:15;41.35;;;29.30;;
66425;SDS011;53237;46.158;14.604;2023-02-11T08:52:41;41.22;;;28.83;;
66425;SDS011;53237;46.158;14.604;2023-02-11T08:55:08;43.13;;;30.98;;
66425;SDS011;53237;46.158;14.604;2023-02-11T08:57:34;41.72;;;29.75;;
66425;SDS011;53237;46.158;14.604;2023-02-11T09:00:00;44.33;;;30.00;;
66425;SDS011;53237;46.158;14.604;2023-02-11T09:02:26;43.28;;;29.40;;
66425;SDS011;53237;46.158;14.604;2023-02-11T09:04:52;47.42;;;34.00;;
66425;SDS011;53237;46.158;14.604;2023-02-11T09:07:18;39.03;;;28.15;;
66425;SDS011;53237;46.158;14.604;2023-02-11T09:09:44;43.22;;;30.52;;
66425;SDS011;53237;46.158;14.604;2023-02-11T09:12:10;41.47;;;30.48;;
66425;SDS011;53237;46.158;14.604;2023-02-11T09:14:36;56.35;;;39.47;;
66425;SDS011;53237;46.158;14.604;2023-02-11T09:17:02;40.45;;;29.02;;
66425;SDS011;53237;46.158;14.604;2023-02-11T09:19:28;46.72;;;33.38;;
66425;SDS011;53237;46.158;14.604;2023-02-11T09:21:54;40.38;;;29.45;;
66425;SDS011;53237;46.158;14.604;2023-02-11T09:24:20;46.10;;;35.20;;
66425;SDS011;53237;46.158;14.604;2023-02-11T09:26:46;38.72;;;30.25;;
66425;SDS011;53237;46.158;14.604;2023-02-11T09:29:13;41.85;;;32.33;;
66425;SDS011;53237;46.158;14.604;2023-02-11T09:31:39;48.95;;;38.95;;
66425;SDS011;53237;46.158;14.604;2023-02-11T09:34:05;52.92;;;39.65;;
66425;SDS011;53237;46.158;14.604;2023-02-11T09:36:33;43.55;;;32.55;;
66425;SDS011;53237;46.158;14.604;2023-02-11T09:39:00;39.88;;;29.48;;
66425;SDS011;53237;46.158;14.604;2023-02-11T09:43:53;39.88;;;30.00;;
66425;SDS011;53237;46.158;14.604;2023-02-11T09:46:20;37.72;;;29.23;;
66425;SDS011;53237;46.158;14.604;2023-02-11T09:48:48;37.50;;;29.38;;
66425;SDS011;53237;46.158;14.604;2023-02-11T09:51:19;38.08;;;27.80;;
66425;SDS011;53237;46.158;14.604;2023-02-11T09:53:47;35.78;;;29.00;;
66425;SDS011;53237;46.158;14.604;2023-02-11T09:56:15;38.25;;;29.60;;
66425;SDS011;53237;46.158;14.604;2023-02-11T09:58:42;45.47;;;32.42;;
66425;SDS011;53237;46.158;14.604;2023-02-11T10:01:14;33.42;;;26.40;;
66425;SDS011;53237;46.158;14.604;2023-02-11T10:08:40;34.55;;;26.15;;
66425;SDS011;53237;46.158;14.604;2023-02-11T10:11:25;33.58;;;24.27;;
66425;SDS011;53237;46.158;14.604;2023-02-11T10:13:58;36.00;;;26.05;;
66425;SDS011;53237;46.158;14.604;2023-02-11T10:24:09;26.08;;;20.67;;
66425;SDS011;53237;46.158;14.604;2023-02-11T10:26:35;26.25;;;20.60;;
66425;SDS011;53237;46.158;14.604;2023-02-11T10:29:03;26.35;;;21.55;;
66425;SDS011;53237;46.158;14.604;2023-02-11T10:31:36;26.90;;;21.42;;
66425;SDS011;53237;46.158;14.604;2023-02-11T10:34:04;25.58;;;20.83;;
66425;SDS011;53237;46.158;14.604;2023-02-11T10:36:35;26.55;;;21.48;;
66425;SDS011;53237;46.158;14.604;2023-02-11T10:39:08;27.67;;;22.08;;
66425;SDS011;53237;46.158;14.604;2023-02-11T10:41:37;27.17;;;22.27;;
66425;SDS011;53237;46.158;14.604;2023-02-11T10:44:07;25.30;;;20.58;;
66425;SDS011;53237;46.158;14.604;2023-02-11T10:46:34;25.17;;;20.27;;
66425;SDS011;53237;46.158;14.604;2023-02-11T10:49:04;25.27;;;20.70;;
66425;SDS011;53237;46.158;14.604;2023-02-11T10:51:31;26.60;;;20.42;;
66425;SDS011;53237;46.158;14.604;2023-02-11T10:56:49;29.73;;;23.05;;
66425;SDS011;53237;46.158;14.604;2023-02-11T11:01:47;28.48;;;22.88;;
66425;SDS011;53237;46.158;14.604;2023-02-11T11:04:47;22.15;;;18.88;;
66425;SDS011;53237;46.158;14.604;2023-02-11T11:07:22;25.52;;;19.88;;
66425;SDS011;53237;46.158;14.604;2023-02-11T11:09:55;29.15;;;22.38;;
66425;SDS011;53237;46.158;14.604;2023-02-11T11:14:54;22.58;;;19.40;;
66425;SDS011;53237;46.158;14.604;2023-02-11T11:17:20;25.63;;;18.60;;
66425;SDS011;53237;46.158;14.604;2023-02-11T11:19:46;23.27;;;19.00;;
66425;SDS011;53237;46.158;14.604;2023-02-11T11:22:21;23.42;;;19.67;;
66425;SDS011;53237;46.158;14.604;2023-02-11T11:24:47;22.85;;;19.73;;
66425;SDS011;53237;46.158;14.604;2023-02-11T11:27:20;26.08;;;21.35;;
66425;SDS011;53237;46.158;14.604;2023-02-11T11:29:49;27.67;;;22.25;;
66425;SDS011;53237;46.158;14.604;2023-02-11T11:32:19;24.15;;;19.92;;
66425;SDS011;53237;46.158;14.604;2023-02-11T11:34:50;24.50;;;20.23;;
66425;SDS011;53237;46.158;14.604;2023-02-11T11:42:26;25.83;;;20.52;;
66425;SDS011;53237;46.158;14.604;2023-02-11T11:45:34;23.25;;;19.50;;
66425;SDS011;53237;46.158;14.604;2023-02-11T11:50:36;24.23;;;19.55;;
66425;SDS011;53237;46.158;14.604;2023-02-11T11:55:44;23.55;;;19.35;;
66425;SDS011;53237;46.158;14.604;2023-02-11T11:58:19;24.73;;;20.50;;
66425;SDS011;53237;46.158;14.604;2023-02-11T12:13:33;34.22;;;25.58;;
66425;SDS011;53237;46.158;14.604;2023-02-11T12:21:40;30.17;;;23.60;;
66425;SDS011;53237;46.158;14.604;2023-02-11T12:24:28;25.10;;;21.10;;
66425;SDS011;53237;46.158;14.604;2023-02-11T12:27:07;26.45;;;20.88;;
66425;SDS011;53237;46.158;14.604;2023-02-11T12:32:26;26.40;;;21.75;;
66425;SDS011;53237;46.158;14.604;2023-02-11T12:52:55;45.00;;;33.92;;
66425;SDS011;53237;46.158;14.604;2023-02-11T12:55:25;48.85;;;36.42;;
66425;SDS011;53237;46.158;14.604;2023-02-11T12:57:53;44.42;;;35.95;;
66425;SDS011;53237;46.158;14.604;2023-02-11T13:00:30;43.50;;;35.75;;
66425;SDS011;53237;46.158;14.604;2023-02-11T13:05:45;42.17;;;32.45;;
66425;SDS011;53237;46.158;14.604;2023-02-11T13:08:21;41.03;;;32.97;;
66425;SDS011;53237;46.158;14.604;2023-02-11T13:10:54;37.97;;;28.52;;
66425;SDS011;53237;46.158;14.604;2023-02-11T13:13:26;39.75;;;31.65;;
66425;SDS011;53237;46.158;14.604;2023-02-11T13:15:58;40.63;;;30.25;;
66425;SDS011;53237;46.158;14.604;2023-02-11T13:23:35;34.35;;;26.63;;
66425;SDS011;53237;46.158;14.604;2023-02-11T13:31:12;33.85;;;27.70;;
66425;SDS011;53237;46.158;14.604;2023-02-11T13:33:40;30.85;;;25.23;;
66425;SDS011;53237;46.158;14.604;2023-02-11T13:38:34;33.03;;;25.90;;
66425;SDS011;53237;46.158;14.604;2023-02-11T13:41:15;29.63;;;24.20;;
66425;SDS011;53237;46.158;14.604;2023-02-11T13:43:41;31.10;;;24.48;;
66425;SDS011;53237;46.158;14.604;2023-02-11T13:46:09;29.65;;;23.73;;
66425;SDS011;53237;46.158;14.604;2023-02-11T13:48:37;33.08;;;26.23;;
66425;SDS011;53237;46.158;14.604;2023-02-11T13:51:04;31.48;;;25.10;;
66425;SDS011;53237;46.158;14.604;2023-02-11T13:56:11;30.95;;;24.50;;
66425;SDS011;53237;46.158;14.604;2023-02-11T13:58:47;34.65;;;25.90;;
66425;SDS011;53237;46.158;14.604;2023-02-11T14:01:37;44.60;;;33.88;;
66425;SDS011;53237;46.158;14.604;2023-02-11T14:04:05;47.38;;;35.25;;
66425;SDS011;53237;46.158;14.604;2023-02-11T14:09:58;39.65;;;30.67;;
66425;SDS011;53237;46.158;14.604;2023-02-11T14:12:30;38.03;;;30.27;;
66425;SDS011;53237;46.158;14.604;2023-02-11T14:14:57;36.78;;;28.02;;
66425;SDS011;53237;46.158;14.604;2023-02-11T14:17:26;40.13;;;32.17;;
66425;SDS011;53237;46.158;14.604;2023-02-11T14:19:55;45.72;;;31.85;;
66425;SDS011;53237;46.158;14.604;2023-02-11T14:24:59;36.15;;;28.55;;
66425;SDS011;53237;46.158;14.604;2023-02-11T14:27:29;40.55;;;31.83;;
66425;SDS011;53237;46.158;14.604;2023-02-11T14:42:18;83.15;;;59.05;;
66425;SDS011;53237;46.158;14.604;2023-02-11T14:44:49;52.33;;;37.30;;
66425;SDS011;53237;46.158;14.604;2023-02-11T14:47:20;50.50;;;38.03;;
66425;SDS011;53237;46.158;14.604;2023-02-11T14:49:47;46.30;;;34.90;;
66425;SDS011;53237;46.158;14.604;2023-02-11T14:54:50;43.50;;;33.50;;
66425;SDS011;53237;46.158;14.604;2023-02-11T14:57:17;44.97;;;34.17;;
66425;SDS011;53237;46.158;14.604;2023-02-11T15:02:19;48.30;;;35.65;;
66425;SDS011;53237;46.158;14.604;2023-02-11T15:04:45;45.80;;;34.13;;
66425;SDS011;53237;46.158;14.604;2023-02-11T15:07:11;40.25;;;31.70;;
66425;SDS011;53237;46.158;14.604;2023-02-11T15:14:45;42.38;;;33.25;;
66425;SDS011;53237;46.158;14.604;2023-02-11T15:17:11;45.88;;;37.08;;
66425;SDS011;53237;46.158;14.604;2023-02-11T15:19:40;45.85;;;36.58;;
66425;SDS011;53237;46.158;14.604;2023-02-11T15:22:16;47.28;;;36.67;;
66425;SDS011;53237;46.158;14.604;2023-02-11T15:24:44;45.38;;;35.33;;
66425;SDS011;53237;46.158;14.604;2023-02-11T15:27:11;50.45;;;36.38;;
66425;SDS011;53237;46.158;14.604;2023-02-11T15:29:42;49.10;;;36.63;;
66425;SDS011;53237;46.158;14.604;2023-02-11T15:32:16;47.65;;;36.30;;
66425;SDS011;53237;46.158;14.604;2023-02-11T15:34:43;42.97;;;34.65;;
66425;SDS011;53237;46.158;14.604;2023-02-11T15:37:12;42.25;;;32.78;;
66425;SDS011;53237;46.158;14.604;2023-02-11T15:39:39;40.83;;;32.67;;
66425;SDS011;53237;46.158;14.604;2023-02-11T15:42:25;51.13;;;36.25;;
66425;SDS011;53237;46.158;14.604;2023-02-11T15:47:32;49.08;;;37.53;;
66425;SDS011;53237;46.158;14.604;2023-02-11T15:49:59;52.53;;;37.67;;
66425;SDS011;53237;46.158;14.604;2023-02-11T15:52:25;52.67;;;38.15;;
66425;SDS011;53237;46.158;14.604;2023-02-11T15:54:52;43.60;;;33.38;;
66425;SDS011;53237;46.158;14.604;2023-02-11T15:57:19;42.72;;;33.67;;
66425;SDS011;53237;46.158;14.604;2023-02-11T15:59:47;46.55;;;36.42;;
66425;SDS011;53237;46.158;14.604;2023-02-11T16:04:46;54.65;;;38.47;;
66425;SDS011;53237;46.158;14.604;2023-02-11T16:07:36;49.20;;;37.33;;
66425;SDS011;53237;46.158;14.604;2023-02-11T16:09:59;53.65;;;39.03;;
66425;SDS011;53237;46.158;14.604;2023-02-11T16:12:25;38.72;;;31.75;;
66425;SDS011;53237;46.158;14.604;2023-02-11T16:14:51;42.50;;;33.05;;
66425;SDS011;53237;46.158;14.604;2023-02-11T16:19:47;56.10;;;40.20;;
66425;SDS011;53237;46.158;14.604;2023-02-11T16:22:15;44.38;;;34.03;;
66425;SDS011;53237;46.158;14.604;2023-02-11T16:24:41;39.00;;;32.15;;
66425;SDS011;53237;46.158;14.604;2023-02-11T16:29:44;56.72;;;41.15;;
66425;SDS011;53237;46.158;14.604;2023-02-11T16:37:08;40.88;;;31.42;;
66425;SDS011;53237;46.158;14.604;2023-02-11T16:39:35;93.43;;;52.80;;
66425;SDS011;53237;46.158;14.604;2023-02-11T16:42:01;42.17;;;32.00;;
66425;SDS011;53237;46.158;14.604;2023-02-11T16:44:27;43.50;;;33.03;;
66425;SDS011;53237;46.158;14.604;2023-02-11T16:46:54;89.38;;;55.83;;
66425;SDS011;53237;46.158;14.604;2023-02-11T16:49:27;52.67;;;40.50;;
66425;SDS011;53237;46.158;14.604;2023-02-11T16:51:55;47.17;;;36.17;;
66425;SDS011;53237;46.158;14.604;2023-02-11T16:54:25;42.92;;;32.55;;
66425;SDS011;53237;46.158;14.604;2023-02-11T16:56:51;47.03;;;35.70;;
66425;SDS011;53237;46.158;14.604;2023-02-11T16:59:17;54.42;;;38.72;;
66425;SDS011;53237;46.158;14.604;2023-02-11T17:01:43;103.05;;;63.25;;
66425;SDS011;53237;46.158;14.604;2023-02-11T17:04:20;54.25;;;39.47;;
66425;SDS011;53237;46.158;14.604;2023-02-11T17:06:48;51.55;;;36.33;;
66425;SDS011;53237;46.158;14.604;2023-02-11T17:09:21;60.80;;;41.75;;
66425;SDS011;53237;46.158;14.604;2023-02-11T17:11:47;56.47;;;40.65;;
66425;SDS011;53237;46.158;14.604;2023-02-11T17:14:14;53.00;;;38.22;;
66425;SDS011;53237;46.158;14.604;2023-02-11T17:16:40;51.70;;;37.75;;
66425;SDS011;53237;46.158;14.604;2023-02-11T17:19:08;53.58;;;38.92;;